Time;durP1;ratioP1;P1;durP2;ratioP2;P2;SDS_P1;SDS_P2;PMS_P1;PMS_P2;Temp;Humidity;BMP_temperature;BMP_pressure;BME280_temperature;BME280_humidity;BME280_pressure;Samples;Min_cycle;Max_cycle;Signal;HPM_P1;HPM_P2
2023/03/17 00:02:07;;;;;;;11.63;6.32;;;;;;;;;;5020422;28;20059;-60
2023/03/17 00:04:32;;;;;;;9.88;5.53;;;;;;;;;;5023998;28;20720;-58
2023/03/17 00:06:58;;;;;;;8.80;4.95;;;;;;;;;;5022027;28;20028;-61
2023/03/17 00:09:24;;;;;;;7.85;5.07;;;;;;;;;;5023375;28;20052;-58
2023/03/17 00:11:49;;;;;;;6.57;4.32;;;;;;;;;;5019869;28;20025;-58
2023/03/17 00:14:15;;;;;;;6.53;4.60;;;;;;;;;;5025565;28;20029;-59
2023/03/17 00:16:41;;;;;;;7.25;4.60;;;;;;;;;;5019732;28;20686;-59
2023/03/17 00:19:13;;;;;;;6.63;4.35;;;;;;;;;;5021584;28;20026;-59
2023/03/17 00:21:39;;;;;;;7.15;4.60;;;;;;;;;;5021462;28;20061;-59
2023/03/17 00:24:05;;;;;;;6.97;4.13;;;;;;;;;;5020804;28;20045;-59
2023/03/17 00:26:30;;;;;;;5.85;3.88;;;;;;;;;;5021597;28;20061;-59
2023/03/17 00:28:55;;;;;;;8.48;4.22;;;;;;;;;;5003366;28;20140;-58
2023/03/17 00:31:23;;;;;;;10.70;4.40;;;;;;;;;;5020174;28;20670;-58
2023/03/17 00:33:49;;;;;;;8.60;4.85;;;;;;;;;;5020785;28;20101;-59
2023/03/17 00:36:16;;;;;;;6.65;4.15;;;;;;;;;;5022883;28;20038;-60
2023/03/17 00:38:43;;;;;;;6.97;4.03;;;;;;;;;;5019215;28;20463;-57
2023/03/17 00:41:11;;;;;;;6.35;4.13;;;;;;;;;;5018789;28;20095;-57
2023/03/17 00:43:37;;;;;;;8.82;4.75;;;;;;;;;;5019841;28;20038;-59
2023/03/17 00:46:08;;;;;;;7.78;4.68;;;;;;;;;;5020628;28;20040;-59
2023/03/17 00:48:34;;;;;;;10.05;4.68;;;;;;;;;;5020151;28;20061;-58
2023/03/17 00:50:59;;;;;;;8.95;4.90;;;;;;;;;;5022480;28;20163;-58
2023/03/17 00:53:27;;;;;;;10.50;4.65;;;;;;;;;;5020158;28;21952;-60
2023/03/17 00:55:53;;;;;;;8.63;4.53;;;;;;;;;;5021589;28;20882;-59
2023/03/17 00:58:26;;;;;;;8.40;4.43;;;;;;;;;;5023937;28;20697;-59
2023/03/17 01:00:52;;;;;;;7.78;3.97;;;;;;;;;;5021813;28;20033;-57
2023/03/17 01:03:18;;;;;;;7.13;4.47;;;;;;;;;;5002964;28;20494;-59
2023/03/17 01:05:43;;;;;;;7.00;4.38;;;;;;;;;;5005763;28;20084;-58
2023/03/17 01:08:09;;;;;;;7.78;4.72;;;;;;;;;;5026137;28;20029;-58
2023/03/17 01:10:35;;;;;;;7.00;4.00;;;;;;;;;;5020371;28;20038;-58
2023/03/17 01:13:01;;;;;;;8.57;4.10;;;;;;;;;;5007060;28;20033;-58
2023/03/17 01:15:29;;;;;;;7.10;4.45;;;;;;;;;;5024475;28;20026;-63
2023/03/17 01:17:56;;;;;;;9.02;4.30;;;;;;;;;;5023926;28;20080;-59
2023/03/17 01:20:23;;;;;;;6.80;4.45;;;;;;;;;;5007544;28;20524;-59
2023/03/17 01:22:49;;;;;;;6.05;4.00;;;;;;;;;;5022707;28;20113;-59
2023/03/17 01:25:15;;;;;;;6.90;4.47;;;;;;;;;;5027966;28;20025;-60
2023/03/17 01:27:41;;;;;;;7.97;4.13;;;;;;;;;;5014472;28;20120;-62
2023/03/17 01:30:16;;;;;;;6.95;4.40;;;;;;;;;;5024304;28;20442;-59
2023/03/17 01:32:42;;;;;;;6.13;3.92;;;;;;;;;;5022204;28;20038;-59
2023/03/17 01:35:08;;;;;;;6.75;4.13;;;;;;;;;;5023938;28;20034;-59
2023/03/17 01:37:33;;;;;;;8.70;4.22;;;;;;;;;;5024388;28;20090;-58
2023/03/17 01:39:58;;;;;;;6.35;3.65;;;;;;;;;;5026040;28;20078;-62
2023/03/17 01:42:24;;;;;;;7.50;4.18;;;;;;;;;;5025025;28;20123;-58
2023/03/17 01:45:06;;;;;;;5.95;3.53;;;;;;;;;;5023947;28;20375;-59
2023/03/17 01:47:32;;;;;;;6.20;4.00;;;;;;;;;;5022466;28;20548;-62
2023/03/17 01:49:59;;;;;;;6.78;4.03;;;;;;;;;;5015418;28;20037;-59
2023/03/17 01:52:26;;;;;;;7.80;3.92;;;;;;;;;;5024829;28;20100;-58
2023/03/17 01:54:55;;;;;;;6.47;4.70;;;;;;;;;;5017407;28;20053;-59
2023/03/17 01:57:22;;;;;;;6.70;4.07;;;;;;;;;;5025614;28;20478;-59
2023/03/17 02:00:00;;;;;;;5.93;3.88;;;;;;;;;;5037006;28;20091;-58
2023/03/17 02:02:30;;;;;;;5.50;3.47;;;;;;;;;;5024167;28;20128;-59
2023/03/17 02:04:56;;;;;;;5.65;3.65;;;;;;;;;;5023761;28;20477;-60
2023/03/17 02:07:23;;;;;;;7.95;3.70;;;;;;;;;;5022910;28;20037;-60
2023/03/17 02:09:48;;;;;;;7.88;3.40;;;;;;;;;;5023105;28;20533;-57
2023/03/17 02:12:17;;;;;;;5.45;3.50;;;;;;;;;;5025285;28;20033;-59
2023/03/17 02:14:43;;;;;;;7.13;4.03;;;;;;;;;;5021492;28;20046;-60
2023/03/17 02:17:08;;;;;;;6.70;4.10;;;;;;;;;;5019793;28;20222;-60
2023/03/17 02:19:34;;;;;;;7.93;4.50;;;;;;;;;;5021206;28;20619;-60
2023/03/17 02:21:59;;;;;;;8.32;4.78;;;;;;;;;;5020214;28;20548;-58
2023/03/17 02:24:39;;;;;;;8.18;4.38;;;;;;;;;;5021916;28;20037;-59
2023/03/17 02:27:07;;;;;;;6.47;4.25;;;;;;;;;;5024210;28;20029;-60
2023/03/17 02:29:34;;;;;;;6.43;3.85;;;;;;;;;;5023666;28;20051;-59
2023/03/17 02:32:00;;;;;;;8.00;3.85;;;;;;;;;;5023007;28;20475;-58
2023/03/17 02:34:25;;;;;;;5.88;3.78;;;;;;;;;;5024141;28;20053;-58
2023/03/17 02:36:51;;;;;;;5.80;3.97;;;;;;;;;;5022119;28;20113;-62
2023/03/17 02:39:16;;;;;;;7.10;4.32;;;;;;;;;;5020488;28;20047;-57
2023/03/17 02:41:41;;;;;;;6.00;3.90;;;;;;;;;;5022664;28;20134;-59
2023/03/17 02:44:07;;;;;;;14.50;6.45;;;;;;;;;;5038089;28;20042;-59
2023/03/17 02:46:32;;;;;;;7.35;5.03;;;;;;;;;;5029011;28;20047;-59
2023/03/17 02:48:59;;;;;;;11.00;6.97;;;;;;;;;;5025289;28;20666;-58
2023/03/17 02:51:24;;;;;;;8.75;5.78;;;;;;;;;;5019362;28;20049;-58
2023/03/17 02:53:50;;;;;;;8.98;4.45;;;;;;;;;;5020062;28;21899;-58
2023/03/17 02:56:15;;;;;;;9.82;4.38;;;;;;;;;;5022703;28;20691;-59
2023/03/17 02:58:40;;;;;;;6.82;4.63;;;;;;;;;;5022073;28;20036;-58
2023/03/17 03:01:07;;;;;;;8.68;4.65;;;;;;;;;;5020870;28;20107;-59
2023/03/17 03:03:33;;;;;;;8.13;5.22;;;;;;;;;;5021011;28;20037;-59
2023/03/17 03:05:58;;;;;;;7.35;4.72;;;;;;;;;;5025739;28;20036;-58
2023/03/17 03:08:25;;;;;;;8.40;4.40;;;;;;;;;;5022106;28;20108;-59
2023/03/17 03:10:50;;;;;;;6.90;4.03;;;;;;;;;;5024307;28;20033;-59
2023/03/17 03:13:16;;;;;;;8.93;4.32;;;;;;;;;;5022396;28;20048;-59
2023/03/17 03:15:42;;;;;;;6.72;4.20;;;;;;;;;;5025138;28;20056;-58
2023/03/17 03:18:07;;;;;;;6.97;4.43;;;;;;;;;;5023561;28;20025;-57
2023/03/17 03:20:32;;;;;;;9.60;5.00;;;;;;;;;;5024598;28;20037;-57
2023/03/17 03:22:58;;;;;;;9.70;5.05;;;;;;;;;;5024126;28;20132;-58
2023/03/17 03:25:23;;;;;;;6.63;4.22;;;;;;;;;;5023151;28;21664;-55
2023/03/17 03:27:48;;;;;;;5.90;3.30;;;;;;;;;;5023020;28;20029;-58
2023/03/17 03:30:14;;;;;;;9.90;4.57;;;;;;;;;;5021274;28;20030;-58
2023/03/17 03:32:39;;;;;;;6.70;3.90;;;;;;;;;;5023165;28;20393;-58
2023/03/17 03:35:05;;;;;;;5.93;4.00;;;;;;;;;;5020370;28;20108;-58
2023/03/17 03:37:30;;;;;;;5.82;3.80;;;;;;;;;;5023708;28;20993;-59
2023/03/17 03:39:55;;;;;;;6.18;4.10;;;;;;;;;;5022979;28;20111;-58
2023/03/17 03:42:20;;;;;;;7.88;4.53;;;;;;;;;;5022808;28;20076;-60
2023/03/17 03:44:46;;;;;;;7.78;4.80;;;;;;;;;;5021633;28;21069;-60
2023/03/17 03:47:11;;;;;;;6.70;4.60;;;;;;;;;;5022577;28;20104;-58
2023/03/17 03:49:36;;;;;;;9.48;4.53;;;;;;;;;;5019499;28;20136;-59
2023/03/17 03:52:02;;;;;;;6.63;4.20;;;;;;;;;;5020188;28;20033;-60
2023/03/17 03:54:27;;;;;;;8.05;4.70;;;;;;;;;;5021282;28;20039;-59
2023/03/17 03:56:52;;;;;;;7.80;4.22;;;;;;;;;;5020987;28;20033;-61
2023/03/17 03:59:18;;;;;;;6.53;4.57;;;;;;;;;;5022557;28;20052;-61
2023/03/17 04:01:43;;;;;;;6.95;4.50;;;;;;;;;;5019417;28;20033;-60
2023/03/17 04:04:08;;;;;;;7.70;4.57;;;;;;;;;;5022612;28;20041;-59
2023/03/17 04:06:34;;;;;;;8.77;5.00;;;;;;;;;;5023381;28;20032;-61
2023/03/17 04:08:59;;;;;;;8.80;4.93;;;;;;;;;;5019600;28;20026;-59
2023/03/17 04:11:25;;;;;;;7.22;4.45;;;;;;;;;;5024642;28;20033;-60
2023/03/17 04:13:50;;;;;;;8.32;5.18;;;;;;;;;;5023854;28;20091;-58
2023/03/17 04:16:15;;;;;;;9.10;5.32;;;;;;;;;;5021718;28;20566;-58
2023/03/17 04:18:41;;;;;;;10.07;4.80;;;;;;;;;;5021274;28;20029;-59
2023/03/17 04:21:07;;;;;;;7.80;5.32;;;;;;;;;;5021260;28;20136;-60
2023/03/17 04:23:32;;;;;;;12.52;5.15;;;;;;;;;;5020353;28;20033;-59
2023/03/17 04:25:57;;;;;;;10.15;5.78;;;;;;;;;;5007028;28;20497;-58
2023/03/17 04:28:23;;;;;;;8.65;5.10;;;;;;;;;;5023150;28;20030;-59
2023/03/17 04:30:48;;;;;;;7.10;4.88;;;;;;;;;;5019367;28;20048;-58
2023/03/17 04:33:14;;;;;;;10.40;6.63;;;;;;;;;;5021980;28;20040;-59
2023/03/17 04:35:39;;;;;;;9.55;5.35;;;;;;;;;;5019860;28;20044;-59
2023/03/17 04:38:05;;;;;;;9.68;5.68;;;;;;;;;;5016424;28;20531;-58
2023/03/17 04:40:31;;;;;;;9.65;5.43;;;;;;;;;;5020689;28;20096;-60
2023/03/17 04:42:56;;;;;;;8.60;5.13;;;;;;;;;;5025750;28;20042;-60
2023/03/17 04:45:21;;;;;;;9.77;4.95;;;;;;;;;;5024147;28;20077;-57
2023/03/17 04:47:47;;;;;;;8.52;5.03;;;;;;;;;;5024278;28;20037;-59
2023/03/17 04:50:12;;;;;;;7.32;4.80;;;;;;;;;;5025065;28;20038;-58
2023/03/17 04:52:38;;;;;;;7.50;4.90;;;;;;;;;;5025051;28;20508;-59
2023/03/17 04:55:04;;;;;;;7.68;4.40;;;;;;;;;;5025002;28;20029;-57
2023/03/17 04:57:29;;;;;;;8.77;5.32;;;;;;;;;;5024920;28;20029;-58
2023/03/17 04:59:56;;;;;;;12.07;5.90;;;;;;;;;;5023828;28;20502;-58
2023/03/17 05:02:21;;;;;;;10.70;5.57;;;;;;;;;;5022867;28;20043;-59
2023/03/17 05:04:47;;;;;;;9.23;5.55;;;;;;;;;;5023234;28;20041;-59
2023/03/17 05:07:12;;;;;;;10.98;5.40;;;;;;;;;;5023356;28;20843;-57
2023/03/17 05:09:38;;;;;;;10.52;5.45;;;;;;;;;;5025029;28;20464;-58
2023/03/17 05:12:03;;;;;;;11.13;5.05;;;;;;;;;;5024733;28;20061;-58
2023/03/17 05:14:28;;;;;;;7.63;4.82;;;;;;;;;;5026402;28;20025;-59
2023/03/17 05:16:54;;;;;;;8.40;4.57;;;;;;;;;;5023914;28;20083;-58
2023/03/17 05:19:19;;;;;;;7.97;4.70;;;;;;;;;;5028791;28;20044;-58
2023/03/17 05:21:45;;;;;;;7.15;4.90;;;;;;;;;;5024642;28;20107;-58
2023/03/17 05:24:11;;;;;;;6.63;4.43;;;;;;;;;;5024546;28;20034;-58
2023/03/17 05:26:36;;;;;;;6.80;4.18;;;;;;;;;;5023775;28;20025;-57
2023/03/17 05:29:02;;;;;;;7.93;4.80;;;;;;;;;;5025273;28;20065;-59
2023/03/17 05:31:27;;;;;;;11.93;6.38;;;;;;;;;;5022323;28;20065;-59
2023/03/17 05:33:52;;;;;;;9.02;6.05;;;;;;;;;;5021989;28;20472;-60
2023/03/17 05:36:18;;;;;;;10.57;5.60;;;;;;;;;;5023266;28;20022;-53
2023/03/17 05:38:43;;;;;;;10.45;5.75;;;;;;;;;;5020714;28;20033;-58
2023/03/17 05:41:09;;;;;;;9.60;6.03;;;;;;;;;;5022616;28;20112;-56
2023/03/17 05:43:35;;;;;;;10.38;5.57;;;;;;;;;;5023640;28;20446;-54
2023/03/17 05:46:01;;;;;;;12.35;5.63;;;;;;;;;;5021679;28;20030;-58
2023/03/17 05:48:26;;;;;;;10.32;5.88;;;;;;;;;;5024192;28;20476;-55
2023/03/17 05:50:51;;;;;;;11.07;6.40;;;;;;;;;;5022432;28;20033;-61
2023/03/17 05:53:17;;;;;;;10.90;6.32;;;;;;;;;;5022207;28;20029;-59
2023/03/17 05:55:42;;;;;;;11.95;7.18;;;;;;;;;;5027901;28;20061;-59
2023/03/17 05:58:08;;;;;;;12.75;6.43;;;;;;;;;;5022631;28;20530;-58
2023/03/17 06:00:35;;;;;;;11.80;6.18;;;;;;;;;;5023270;28;20041;-59
2023/03/17 06:03:02;;;;;;;11.90;7.25;;;;;;;;;;5021438;28;20052;-63
2023/03/17 06:05:31;;;;;;;11.63;7.88;;;;;;;;;;5020879;28;20076;-60
2023/03/17 06:07:56;;;;;;;13.32;6.93;;;;;;;;;;5022048;28;20156;-54
2023/03/17 06:10:22;;;;;;;15.77;7.15;;;;;;;;;;5023535;28;20041;-57
2023/03/17 06:12:47;;;;;;;14.13;6.35;;;;;;;;;;5020078;28;20899;-60
2023/03/17 06:15:12;;;;;;;9.27;6.00;;;;;;;;;;5017326;28;20638;-60
2023/03/17 06:17:38;;;;;;;12.27;7.03;;;;;;;;;;5009931;28;20438;-59
2023/03/17 06:20:04;;;;;;;10.63;6.10;;;;;;;;;;5004671;28;20048;-60
2023/03/17 06:22:29;;;;;;;16.33;8.32;;;;;;;;;;5024544;28;20025;-61
2023/03/17 06:24:55;;;;;;;19.10;8.65;;;;;;;;;;5023148;28;20433;-59
2023/03/17 06:27:20;;;;;;;49.17;22.20;;;;;;;;;;5020282;28;20375;-58
2023/03/17 06:29:46;;;;;;;36.35;15.85;;;;;;;;;;5025201;28;20057;-55
2023/03/17 06:32:11;;;;;;;24.48;11.93;;;;;;;;;;5020346;28;20948;-59
2023/03/17 06:34:37;;;;;;;19.83;9.48;;;;;;;;;;5020426;28;20543;-58
2023/03/17 06:37:02;;;;;;;19.00;9.90;;;;;;;;;;5021649;28;20035;-58
2023/03/17 06:39:27;;;;;;;16.25;8.73;;;;;;;;;;5023971;28;20021;-60
2023/03/17 06:41:53;;;;;;;14.45;8.02;;;;;;;;;;5017544;28;20124;-59
2023/03/17 06:44:18;;;;;;;17.13;7.50;;;;;;;;;;5019926;28;20042;-59
2023/03/17 06:46:43;;;;;;;12.50;7.32;;;;;;;;;;5019252;28;20037;-57
2023/03/17 06:49:12;;;;;;;13.30;7.18;;;;;;;;;;5022031;28;20034;-55
2023/03/17 06:51:37;;;;;;;14.20;7.65;;;;;;;;;;5020157;28;20083;-56
2023/03/17 06:54:03;;;;;;;12.18;7.57;;;;;;;;;;5016109;28;20026;-58
2023/03/17 06:56:28;;;;;;;15.23;8.05;;;;;;;;;;5019730;28;20056;-56
2023/03/17 06:58:53;;;;;;;16.00;7.57;;;;;;;;;;5028659;28;20098;-58
2023/03/17 07:01:19;;;;;;;15.35;7.93;;;;;;;;;;5016264;28;20036;-57
2023/03/17 07:03:44;;;;;;;15.65;7.20;;;;;;;;;;5015248;28;20119;-59
2023/03/17 07:06:10;;;;;;;11.18;7.15;;;;;;;;;;5013573;28;20543;-59
2023/03/17 07:08:35;;;;;;;14.80;7.90;;;;;;;;;;5017324;28;20030;-58
2023/03/17 07:11:02;;;;;;;12.88;7.15;;;;;;;;;;5017276;28;20056;-58
2023/03/17 07:13:28;;;;;;;13.63;7.32;;;;;;;;;;5015018;28;20493;-58
2023/03/17 07:15:54;;;;;;;13.18;7.97;;;;;;;;;;5034918;28;20037;-59
2023/03/17 07:18:19;;;;;;;18.63;7.55;;;;;;;;;;5015078;28;20032;-60
2023/03/17 07:20:47;;;;;;;13.68;8.57;;;;;;;;;;5024922;28;20425;-59
2023/03/17 07:23:18;;;;;;;12.15;7.55;;;;;;;;;;5016558;28;20057;-57
2023/03/17 07:25:44;;;;;;;12.75;6.88;;;;;;;;;;5017369;28;20032;-58
2023/03/17 07:28:09;;;;;;;11.18;6.05;;;;;;;;;;5018347;28;20072;-60
2023/03/17 07:30:35;;;;;;;13.00;7.43;;;;;;;;;;5017570;28;20175;-56
2023/03/17 07:33:01;;;;;;;11.93;6.05;;;;;;;;;;5020352;28;20025;-59
2023/03/17 07:35:27;;;;;;;13.88;7.70;;;;;;;;;;5019615;28;20057;-55
2023/03/17 07:37:53;;;;;;;11.18;8.15;;;;;;;;;;5017034;28;20029;-60
2023/03/17 07:40:19;;;;;;;12.30;6.72;;;;;;;;;;5019139;28;20029;-57
2023/03/17 07:42:44;;;;;;;9.05;5.95;;;;;;;;;;5016536;28;20029;-55
2023/03/17 07:45:10;;;;;;;13.07;6.47;;;;;;;;;;5021321;28;20107;-55
2023/03/17 07:47:36;;;;;;;10.88;5.93;;;;;;;;;;5024406;28;20084;-56
2023/03/17 07:50:01;;;;;;;10.23;5.68;;;;;;;;;;5019151;28;20037;-60
2023/03/17 07:52:26;;;;;;;10.65;5.63;;;;;;;;;;5023606;28;20048;-56
2023/03/17 07:54:52;;;;;;;10.80;5.43;;;;;;;;;;5025172;28;20036;-57
2023/03/17 07:57:18;;;;;;;9.60;5.30;;;;;;;;;;5023088;28;20039;-57
2023/03/17 07:59:43;;;;;;;8.63;5.45;;;;;;;;;;5024501;28;20045;-57
2023/03/17 08:02:15;;;;;;;10.80;5.40;;;;;;;;;;5023834;28;20037;-56
2023/03/17 08:04:41;;;;;;;10.77;5.93;;;;;;;;;;5024931;28;20060;-57
2023/03/17 08:07:06;;;;;;;10.98;5.45;;;;;;;;;;5021725;28;20505;-58
2023/03/17 08:09:31;;;;;;;12.18;5.20;;;;;;;;;;5023203;28;20398;-57
2023/03/17 08:11:57;;;;;;;10.00;5.35;;;;;;;;;;5026765;28;20041;-55
2023/03/17 08:14:22;;;;;;;9.13;4.80;;;;;;;;;;5022634;28;20390;-58
2023/03/17 08:16:47;;;;;;;12.88;6.25;;;;;;;;;;5022807;28;20587;-58
2023/03/17 08:19:13;;;;;;;10.13;6.90;;;;;;;;;;5021915;28;20489;-56
2023/03/17 08:21:38;;;;;;;11.52;6.10;;;;;;;;;;5024987;28;20090;-55
2023/03/17 08:24:04;;;;;;;9.25;5.72;;;;;;;;;;5024018;28;20049;-57
2023/03/17 08:26:30;;;;;;;9.93;5.18;;;;;;;;;;5021889;28;20120;-57
2023/03/17 08:28:55;;;;;;;10.38;4.90;;;;;;;;;;5024736;28;20029;-57
2023/03/17 08:31:21;;;;;;;9.68;4.97;;;;;;;;;;5025344;28;20049;-57
2023/03/17 08:33:51;;;;;;;7.82;4.65;;;;;;;;;;5024133;28;20843;-60
2023/03/17 08:36:17;;;;;;;8.98;5.70;;;;;;;;;;5024914;28;20034;-58
2023/03/17 08:38:43;;;;;;;9.60;5.13;;;;;;;;;;5022078;28;20083;-59
2023/03/17 08:41:12;;;;;;;10.15;4.90;;;;;;;;;;5026842;28;20093;-53
2023/03/17 08:43:38;;;;;;;9.52;5.20;;;;;;;;;;5024464;28;20681;-56
2023/03/17 08:46:08;;;;;;;10.07;4.80;;;;;;;;;;5023103;28;20745;-55
2023/03/17 08:48:34;;;;;;;8.52;4.75;;;;;;;;;;5023893;28;20642;-57
2023/03/17 08:50:59;;;;;;;10.05;4.85;;;;;;;;;;5014769;28;20127;-55
2023/03/17 08:53:25;;;;;;;8.57;4.07;;;;;;;;;;5024013;28;20064;-58
2023/03/17 08:55:53;;;;;;;7.80;3.60;;;;;;;;;;5024834;28;20022;-57
2023/03/17 08:58:19;;;;;;;6.82;3.65;;;;;;;;;;5023661;28;20678;-60
2023/03/17 09:00:45;;;;;;;6.25;3.60;;;;;;;;;;5024674;28;20045;-56
2023/03/17 09:03:11;;;;;;;7.30;3.20;;;;;;;;;;5023444;28;20026;-60
2023/03/17 09:05:36;;;;;;;5.80;3.90;;;;;;;;;;5023489;28;20027;-57
2023/03/17 09:08:02;;;;;;;6.18;3.58;;;;;;;;;;5021601;28;20030;-59
2023/03/17 09:10:27;;;;;;;6.90;3.38;;;;;;;;;;5023368;28;20040;-58
2023/03/17 09:12:53;;;;;;;5.80;3.30;;;;;;;;;;5025010;28;20029;-62
2023/03/17 09:15:18;;;;;;;5.45;3.15;;;;;;;;;;5024280;28;20052;-54
2023/03/17 09:17:44;;;;;;;4.53;2.80;;;;;;;;;;5023554;28;20463;-57
2023/03/17 09:20:10;;;;;;;5.57;3.10;;;;;;;;;;5024632;28;20080;-57
2023/03/17 09:22:35;;;;;;;5.03;2.97;;;;;;;;;;5022970;28;20037;-56
2023/03/17 09:25:01;;;;;;;6.43;3.20;;;;;;;;;;5023910;28;20029;-58
2023/03/17 09:27:26;;;;;;;4.93;3.00;;;;;;;;;;5025767;28;20045;-59
2023/03/17 09:29:51;;;;;;;5.50;3.15;;;;;;;;;;5024463;28;20025;-58
2023/03/17 09:32:17;;;;;;;4.97;3.00;;;;;;;;;;5017416;28;20025;-55
2023/03/17 09:34:42;;;;;;;5.50;3.00;;;;;;;;;;5026113;28;20079;-59
2023/03/17 09:37:08;;;;;;;8.25;3.08;;;;;;;;;;5026836;28;20033;-55
2023/03/17 09:39:34;;;;;;;6.13;2.42;;;;;;;;;;5028086;28;20041;-55
2023/03/17 09:42:18;;;;;;;6.85;2.60;;;;;;;;;;5027770;28;20056;-58
2023/03/17 09:44:59;;;;;;;3.47;2.33;;;;;;;;;;5026267;28;20516;-54
2023/03/17 09:47:36;;;;;;;8.02;2.92;;;;;;;;;;5027125;28;20398;-57
2023/03/17 09:50:03;;;;;;;5.50;2.92;;;;;;;;;;5028668;28;20033;-59
2023/03/17 09:52:30;;;;;;;7.00;3.05;;;;;;;;;;5027472;28;20033;-57
2023/03/17 09:54:55;;;;;;;3.83;2.42;;;;;;;;;;5029374;28;20037;-58
2023/03/17 09:57:28;;;;;;;5.97;2.75;;;;;;;;;;5026040;28;20029;-58
2023/03/17 10:00:00;;;;;;;6.07;2.42;;;;;;;;;;5026451;28;20045;-56
2023/03/17 10:02:28;;;;;;;5.88;2.38;;;;;;;;;;5024896;28;20048;-60
2023/03/17 10:04:53;;;;;;;5.55;2.38;;;;;;;;;;5027617;28;20065;-58
2023/03/17 10:07:38;;;;;;;4.75;2.50;;;;;;;;;;5027548;28;20060;-56
2023/03/17 10:10:09;;;;;;;5.78;2.30;;;;;;;;;;5027941;28;20041;-59
2023/03/17 10:12:34;;;;;;;5.20;2.28;;;;;;;;;;5031973;28;20037;-58
2023/03/17 10:15:02;;;;;;;5.55;2.35;;;;;;;;;;5026699;28;20021;-59
2023/03/17 10:17:30;;;;;;;4.90;2.55;;;;;;;;;;5024128;28;20040;-54
2023/03/17 10:19:55;;;;;;;5.32;2.63;;;;;;;;;;5026106;28;20029;-57
2023/03/17 10:22:28;;;;;;;4.50;2.40;;;;;;;;;;5026341;28;20037;-56
2023/03/17 10:24:56;;;;;;;5.55;3.13;;;;;;;;;;5023456;28;21233;-58
2023/03/17 10:27:22;;;;;;;3.97;2.20;;;;;;;;;;5027333;28;20498;-56
2023/03/17 10:29:47;;;;;;;3.25;2.00;;;;;;;;;;5026038;28;20045;-57
2023/03/17 10:32:12;;;;;;;6.13;2.30;;;;;;;;;;5025925;28;20121;-60
2023/03/17 10:34:40;;;;;;;4.38;2.33;;;;;;;;;;5024331;28;20470;-58
2023/03/17 10:37:05;;;;;;;3.60;2.03;;;;;;;;;;5025248;28;20033;-58
2023/03/17 10:39:30;;;;;;;4.28;2.47;;;;;;;;;;5023536;28;20056;-60
2023/03/17 10:41:56;;;;;;;4.90;2.60;;;;;;;;;;5008267;28;20037;-57
2023/03/17 10:44:39;;;;;;;7.22;3.15;;;;;;;;;;5024876;28;20086;-53
2023/03/17 10:47:05;;;;;;;7.40;2.75;;;;;;;;;;5041553;28;20359;-55
2023/03/17 10:49:34;;;;;;;7.75;2.90;;;;;;;;;;5026917;28;20712;-57
2023/03/17 10:51:59;;;;;;;13.23;4.90;;;;;;;;;;5027701;28;20104;-59
2023/03/17 10:54:25;;;;;;;4.82;2.75;;;;;;;;;;5026222;28;20124;-58
2023/03/17 10:56:57;;;;;;;5.60;2.47;;;;;;;;;;5024571;28;20032;-59
2023/03/17 10:59:30;;;;;;;4.80;2.10;;;;;;;;;;5024540;28;20148;-57
2023/03/17 11:01:59;;;;;;;4.47;1.95;;;;;;;;;;5025307;28;20119;-58
2023/03/17 11:04:30;;;;;;;4.40;2.15;;;;;;;;;;5024828;28;20164;-57
2023/03/17 11:06:57;;;;;;;4.15;1.92;;;;;;;;;;5023121;28;20027;-57
2023/03/17 11:09:22;;;;;;;3.80;2.28;;;;;;;;;;5024833;28;20036;-58
2023/03/17 11:11:49;;;;;;;5.80;2.50;;;;;;;;;;5022923;28;20029;-59
2023/03/17 11:14:15;;;;;;;3.65;1.80;;;;;;;;;;5026054;28;20029;-58
2023/03/17 11:16:52;;;;;;;4.15;2.05;;;;;;;;;;5022599;28;20033;-56
2023/03/17 11:19:19;;;;;;;5.22;3.10;;;;;;;;;;5023386;28;20394;-57
2023/03/17 11:21:48;;;;;;;4.85;2.67;;;;;;;;;;5023207;28;20527;-56
2023/03/17 11:24:16;;;;;;;4.88;2.20;;;;;;;;;;5025088;28;20045;-56
2023/03/17 11:26:50;;;;;;;3.13;2.10;;;;;;;;;;5025185;28;20022;-58
2023/03/17 11:29:22;;;;;;;9.25;4.97;;;;;;;;;;5024691;28;20037;-58
2023/03/17 11:31:50;;;;;;;3.17;2.17;;;;;;;;;;5024490;28;20073;-60
2023/03/17 11:34:20;;;;;;;3.55;1.88;;;;;;;;;;5009453;28;20053;-59
2023/03/17 11:36:45;;;;;;;3.60;1.80;;;;;;;;;;5014902;28;20040;-58
2023/03/17 11:39:15;;;;;;;2.47;1.80;;;;;;;;;;5017042;28;20025;-59
2023/03/17 11:41:59;;;;;;;3.17;1.50;;;;;;;;;;5023326;28;20448;-59
2023/03/17 11:44:48;;;;;;;3.70;1.77;;;;;;;;;;5019014;28;20029;-59
2023/03/17 11:47:27;;;;;;;5.20;1.80;;;;;;;;;;5018424;28;20060;-60
2023/03/17 11:50:01;;;;;;;3.88;1.80;;;;;;;;;;5021293;28;20087;-58
2023/03/17 11:52:42;;;;;;;2.25;1.65;;;;;;;;;;5020322;28;20033;-61
2023/03/17 11:55:22;;;;;;;2.20;1.60;;;;;;;;;;5019815;28;20033;-58
2023/03/17 11:57:51;;;;;;;3.45;1.95;;;;;;;;;;5021644;28;20040;-58
2023/03/17 12:00:23;;;;;;;3.50;1.67;;;;;;;;;;5023071;28;20116;-58
2023/03/17 12:02:56;;;;;;;3.00;1.60;;;;;;;;;;5021491;28;20044;-55
2023/03/17 12:05:23;;;;;;;2.90;1.52;;;;;;;;;;5021103;28;20029;-58
2023/03/17 12:07:53;;;;;;;2.03;1.38;;;;;;;;;;5019382;28;20037;-58
2023/03/17 12:10:23;;;;;;;2.20;1.40;;;;;;;;;;5019393;28;20037;-59
2023/03/17 12:12:55;;;;;;;3.30;1.60;;;;;;;;;;5018040;28;20532;-60
2023/03/17 12:15:33;;;;;;;2.70;1.50;;;;;;;;;;5017566;28;20486;-58
2023/03/17 12:18:01;;;;;;;3.45;1.80;;;;;;;;;;5024570;28;20512;-56
2023/03/17 12:20:32;;;;;;;4.97;1.60;;;;;;;;;;5021812;28;20100;-61
2023/03/17 12:23:00;;;;;;;4.90;1.70;;;;;;;;;;5019469;28;20083;-59
2023/03/17 12:25:29;;;;;;;4.15;1.60;;;;;;;;;;5021699;28;20152;-58
2023/03/17 12:28:07;;;;;;;3.05;1.30;;;;;;;;;;5021717;28;20136;-60
2023/03/17 12:30:53;;;;;;;2.47;1.30;;;;;;;;;;5023252;28;21692;-57
2023/03/17 12:33:21;;;;;;;1.80;1.27;;;;;;;;;;5023658;28;20029;-58
2023/03/17 12:35:46;;;;;;;2.38;1.38;;;;;;;;;;5025057;28;20025;-57
2023/03/17 12:38:40;;;;;;;2.23;1.40;;;;;;;;;;5023577;28;20040;-59
2023/03/17 12:41:13;;;;;;;3.70;1.65;;;;;;;;;;5009881;28;20089;-58
2023/03/17 12:43:54;;;;;;;3.13;1.65;;;;;;;;;;5019892;28;20068;-58
2023/03/17 12:46:23;;;;;;;2.80;1.48;;;;;;;;;;5028126;28;20056;-59
2023/03/17 12:48:48;;;;;;;5.35;1.52;;;;;;;;;;5020441;28;20040;-59
2023/03/17 12:51:13;;;;;;;3.17;1.50;;;;;;;;;;5023533;28;20465;-60
2023/03/17 12:53:43;;;;;;;3.00;1.67;;;;;;;;;;5022055;28;20037;-57
2023/03/17 12:56:09;;;;;;;1.92;1.40;;;;;;;;;;5013999;28;20484;-59
2023/03/17 12:58:45;;;;;;;3.57;1.60;;;;;;;;;;5019516;28;20036;-59
2023/03/17 13:01:11;;;;;;;2.67;1.40;;;;;;;;;;5029570;28;20044;-59
2023/03/17 13:03:44;;;;;;;3.60;1.60;;;;;;;;;;5026698;28;20030;-58
2023/03/17 13:06:15;;;;;;;2.45;1.55;;;;;;;;;;5020633;28;20022;-59
2023/03/17 13:08:41;;;;;;;3.97;1.50;;;;;;;;;;5024208;28;20025;-58
2023/03/17 13:11:18;;;;;;;4.88;1.60;;;;;;;;;;5027587;28;20072;-57
2023/03/17 13:13:43;;;;;;;2.97;1.38;;;;;;;;;;5027923;28;20567;-61
2023/03/17 13:16:26;;;;;;;2.67;1.70;;;;;;;;;;5026490;28;22003;-58
2023/03/17 13:19:04;;;;;;;1.83;1.42;;;;;;;;;;5029328;28;20033;-59
2023/03/17 13:21:30;;;;;;;2.08;1.40;;;;;;;;;;5028443;28;20034;-59
2023/03/17 13:24:22;;;;;;;1.80;1.33;;;;;;;;;;5025212;28;20059;-57
2023/03/17 13:26:55;;;;;;;2.22;1.30;;;;;;;;;;5025726;28;20053;-58
2023/03/17 13:29:26;;;;;;;2.58;1.60;;;;;;;;;;5027613;28;20037;-58
2023/03/17 13:31:51;;;;;;;3.70;1.40;;;;;;;;;;5014449;28;20869;-60
2023/03/17 13:34:18;;;;;;;2.57;1.40;;;;;;;;;;5028483;28;20497;-60
2023/03/17 13:36:44;;;;;;;2.80;1.70;;;;;;;;;;5028404;28;20504;-58
2023/03/17 13:39:16;;;;;;;2.60;1.50;;;;;;;;;;5027500;28;20882;-58
2023/03/17 13:41:47;;;;;;;4.70;1.65;;;;;;;;;;5025767;28;20033;-59
2023/03/17 13:44:32;;;;;;;3.17;1.40;;;;;;;;;;5025565;28;20032;-59
2023/03/17 13:47:16;;;;;;;2.63;1.50;;;;;;;;;;5027763;28;20033;-60
2023/03/17 13:49:44;;;;;;;4.45;1.40;;;;;;;;;;5042063;28;20044;-58
2023/03/17 13:52:12;;;;;;;2.17;1.40;;;;;;;;;;5025526;28;20037;-58
2023/03/17 13:54:48;;;;;;;4.03;1.60;;;;;;;;;;5025538;28;20037;-60
2023/03/17 13:57:24;;;;;;;3.08;1.52;;;;;;;;;;5027846;28;20124;-58
2023/03/17 13:59:49;;;;;;;2.43;1.47;;;;;;;;;;5024486;28;20191;-58
2023/03/17 14:02:22;;;;;;;2.37;1.47;;;;;;;;;;5025132;28;20317;-59
2023/03/17 14:04:53;;;;;;;2.75;1.40;;;;;;;;;;5025588;28;20029;-60
2023/03/17 14:07:20;;;;;;;2.28;1.35;;;;;;;;;;5027730;28;20026;-58
2023/03/17 14:09:45;;;;;;;;;;;;;;;;;;5042283;28;20034;-57
2023/03/17 14:12:14;;;;;;;3.97;1.33;;;;;;;;;;5028862;28;19905;-57
2023/03/17 14:14:43;;;;;;;4.03;1.70;;;;;;;;;;5024902;28;20087;-61
2023/03/17 14:17:11;;;;;;;3.72;1.50;;;;;;;;;;5025688;28;20114;-61
2023/03/17 14:19:40;;;;;;;5.00;1.50;;;;;;;;;;5025991;28;20087;-59
2023/03/17 14:22:37;;;;;;;2.83;1.50;;;;;;;;;;5025845;28;20119;-61
2023/03/17 14:25:06;;;;;;;2.63;1.25;;;;;;;;;;5013790;28;20563;-59
2023/03/17 14:27:33;;;;;;;2.95;1.70;;;;;;;;;;5025344;28;20515;-58
2023/03/17 14:30:04;;;;;;;3.53;1.85;;;;;;;;;;5025050;28;20025;-60
2023/03/17 14:32:29;;;;;;;2.53;1.58;;;;;;;;;;5026780;28;20395;-61
2023/03/17 14:34:56;;;;;;;3.00;1.67;;;;;;;;;;5023655;28;20541;-58
2023/03/17 14:37:21;;;;;;;3.03;1.35;;;;;;;;;;5026022;28;20054;-58
2023/03/17 14:39:48;;;;;;;2.05;1.48;;;;;;;;;;5026558;28;20135;-57
2023/03/17 14:42:16;;;;;;;5.10;1.38;;;;;;;;;;5025022;28;20900;-58
2023/03/17 14:44:42;;;;;;;4.70;1.65;;;;;;;;;;5024366;28;20061;-57